Latest Coastal Weather Observations for Portland Harbour

IDV60701

Issued at 8:31 pm EDT Thursday 21 October 2021 (issued every 10 minutes, with the page automatically refreshed every 10 minutes)

About coastal observations | Map of coastal stations | Coastal observations for VIC | Marine services | Other Formats
Station Details ID: 090192 Name: PORTLAND NTC AWS Lat: -38.34 Lon: 141.61 Height: 0.0 m
Data from the previous 72 hours. | See also: Recent months for locations in Victoria
Date/Time
EDT
Wind Sea
Height
m
Swell Vis
km
Cloud Weather Temp
°C
Press
MSL
hPa
Rain since
9am
mm
Dir  Spd
kts
Gust
kts
Height
m
Period
s
Dir
21/08:30pm W 3 5 - - - - - - - 15.3 1013.8 -
21/08:00pm W 3 6 - - - - - - - 15.9 1013.5 -
21/07:30pm W 9 13 - - - - - - - 16.6 1013.0 -
21/07:00pm W 11 16 - - - - - - - 16.8 1012.8 -
21/06:30pm W 10 19 - - - - - - - 17.3 1012.2 -
21/06:00pm W 14 19 - - - - - - - 17.5 1011.9 -
21/05:30pm W 16 23 - - - - - - - 17.5 1011.6 -
21/05:00pm WSW 15 21 - - - - - - - 17.6 1011.3 -
21/04:30pm W 12 18 - - - - - - - 17.8 1011.0 -
21/04:00pm WSW 13 17 - - - - - - - 18.7 1011.2 -
21/03:30pm WSW 12 16 - - - - - - - 18.5 1011.1 -
21/03:00pm WSW 12 16 - - - - - - - 18.2 1011.0 -
21/02:30pm W 12 18 - - - - - - - 18.7 1011.0 -
21/02:00pm WSW 11 16 - - - - - - - 18.6 1011.1 -
21/01:30pm SW 11 16 - - - - - - - 18.3 1011.0 -
21/01:00pm WSW 9 13 - - - - - - - 19.8 1011.0 -
21/12:30pm SSE 4 7 - - - - - - - 19.5 1010.9 -
21/12:00pm NE 5 7 - - - - - - - 18.5 1010.9 -
21/11:30am NNE 3 5 - - - - - - - 19.0 1011.0 -
21/11:00am NNW 2 5 - - - - - - - 19.5 1011.0 -
21/10:30am WNW 6 11 - - - - - - - 18.8 1011.1 -
21/10:00am NW 8 12 - - - - - - - 18.5 1011.0 -
21/09:30am NW 8 10 - - - - - - - 18.1 1011.0 -
21/09:00am WNW 10 15 - - - - - - - 18.1 1011.0 -
21/08:30am NW 8 11 - - - - - - - 18.7 1010.8 -
21/08:00am NW 6 11 - - - - - - - 18.7 1010.3 -
21/07:30am NW 7 11 - - - - - - - 18.5 1010.1 -
21/07:00am NNW 15 19 - - - - - - - 19.1 1009.6 -
21/06:30am NNW 12 16 - - - - - - - 19.1 1009.3 -
21/06:00am NNW 9 12 - - - - - - - 18.7 1009.0 -
21/05:30am N 13 16 - - - - - - - 19.1 1008.7 -
21/05:00am N 14 19 - - - - - - - 19.1 1008.7 -
21/04:30am NNE 3 11 - - - - - - - 17.6 1008.9 -
21/04:00am ENE 4 6 - - - - - - - 15.9 1008.9 -
21/03:30am NNE 3 5 - - - - - - - 16.4 1009.2 -
21/03:00am ENE 9 11 - - - - - - - 16.4 1009.2 -
21/02:30am ENE 7 9 - - - - - - - 16.2 1009.5 -
21/02:00am ENE 10 12 - - - - - - - 16.5 1009.7 -
21/01:30am NNE 3 8 - - - - - - - 15.5 1010.1 -
21/01:00am E 11 14 - - - - - - - 15.6 1010.2 -
21/12:30am ESE 9 12 - - - - - - - 15.8 1010.2 -
21/12:00am ENE 9 10 - - - - - - - 16.7 1010.5 -
 
Date/Time
EDT
Wind Sea
Height
m
Swell Vis
km
Cloud Weather Temp
°C
Press
MSL
hPa
Rain since
9am
mm
Dir  Spd
kts
Gust
kts
Height
m
Period
s
Dir
20/11:30pm ENE 9 10 - - - - - - - 16.7 1010.8 -
20/11:00pm ENE 6 8 - - - - - - - 15.6 1011.0 -
20/10:30pm ENE 10 11 - - - - - - - 15.9 1011.0 -
20/10:00pm ENE 14 16 - - - - - - - 17.2 1011.0 -
20/09:30pm ENE 15 17 - - - - - - - 17.0 1010.8 -
20/09:00pm ENE 10 13 - - - - - - - 17.1 1011.5 -
20/08:30pm NE 4 6 - - - - - - - 16.5 1011.8 -
20/08:00pm ENE 5 8 - - - - - - - 16.8 1011.9 -
20/07:30pm ENE 9 11 - - - - - - - 17.6 1011.7 -
20/07:00pm NE 7 9 - - - - - - - 17.6 1011.5 -
20/06:30pm NE 7 9 - - - - - - - 17.3 1011.6 -
20/06:00pm N 8 10 - - - - - - - 18.6 1011.9 -
20/05:30pm ENE 3 5 - - - - - - - 18.5 1011.8 -
20/05:00pm ESE 5 8 - - - - - - - 17.6 1012.0 -
20/04:30pm SE 5 10 - - - - - - - 16.4 1012.2 -
20/04:00pm ESE 8 12 - - - - - - - 16.9 1012.6 -
20/03:30pm ENE 11 14 - - - - - - - 17.9 1013.2 -
20/03:00pm E 9 13 - - - - - - - 17.6 1013.8 -
20/02:30pm NE 13 15 - - - - - - - 17.6 1014.6 -
20/02:00pm ENE 10 11 - - - - - - - 16.9 1015.1 -
20/01:30pm E 12 14 - - - - - - - 15.8 1015.6 -
20/01:00pm E 12 16 - - - - - - - 15.3 1016.1 -
20/12:30pm E 13 15 - - - - - - - 14.9 1016.9 -
20/12:00pm E 11 13 - - - - - - - 14.4 1017.6 -
20/11:30am ENE 9 11 - - - - - - - 14.3 1018.5 -
20/11:00am ENE 10 11 - - - - - - - 13.8 1018.7 -
20/10:30am NE 13 15 - - - - - - - 13.3 1018.9 -
20/10:00am ENE 14 17 - - - - - - - 12.8 1019.0 -
20/09:30am NE 13 15 - - - - - - - 12.7 1019.3 -
20/09:00am NE 15 17 - - - - - - - 12.3 1019.4 -
20/08:30am NE 15 17 - - - - - - - 12.0 1019.6 -
20/08:00am ENE 18 22 - - - - - - - 12.0 1019.6 -
20/07:30am ENE 20 25 - - - - - - - 11.9 1019.0 -
20/07:00am NE 17 21 - - - - - - - 11.9 1019.3 -
20/06:30am NE 18 21 - - - - - - - 11.8 1019.9 -
20/06:00am ENE 17 21 - - - - - - - 11.9 1020.3 -
20/05:30am NE 13 15 - - - - - - - 12.4 1020.6 -
20/05:00am ENE 13 15 - - - - - - - 12.2 1020.9 -
20/04:30am ENE 13 16 - - - - - - - 12.0 1021.3 -
20/04:00am NE 14 18 - - - - - - - 11.7 1021.3 -
20/03:30am ENE 15 18 - - - - - - - 11.6 1021.2 -
20/03:00am ENE 16 19 - - - - - - - 11.7 1021.3 -
20/02:30am ENE 17 19 - - - - - - - 11.9 1021.7 -
20/02:00am ENE 14 16 - - - - - - - 11.9 1022.2 -
20/01:30am ENE 14 16 - - - - - - - 12.3 1022.8 -
20/01:00am ENE 13 17 - - - - - - - 12.6 1023.4 -
20/12:30am NE 13 16 - - - - - - - 13.0 1023.6 -
20/12:00am ENE 12 15 - - - - - - - 13.3 1023.6 -
 
Date/Time
EDT
Wind Sea
Height
m
Swell Vis
km
Cloud Weather Temp
°C
Press
MSL
hPa
Rain since
9am
mm
Dir  Spd
kts
Gust
kts
Height
m
Period
s
Dir
19/11:30pm ENE 12 15 - - - - - - - 13.9 1024.2 -
19/11:00pm ESE 7 13 - - - - - - - 13.5 1023.8 -
19/10:30pm ESE 6 13 - - - - - - - 13.4 1023.5 -
19/10:00pm ESE 7 13 - - - - - - - 12.9 1024.0 -
19/09:30pm ESE 7 14 - - - - - - - 12.8 1024.2 -
19/09:00pm ESE 6 12 - - - - - - - 12.8 1024.0 -
19/08:30pm ESE 6 12 - - - - - - - 12.8 1024.3 -
19/08:00pm ESE 6 11 - - - - - - - 12.7 1023.9 -
19/07:30pm ESE 7 12 - - - - - - - 12.8 1023.3 -
19/07:00pm SE 9 13 - - - - - - - 12.8 1024.1 -
19/06:30pm SE 11 14 - - - - - - - 12.9 1024.2 -
19/06:00pm SE 10 14 - - - - - - - 13.1 1024.1 -
19/05:30pm ESE 6 10 - - - - - - - 13.2 1023.9 -
19/05:00pm ESE 6 10 - - - - - - - 13.0 1023.9 -
19/04:30pm ESE 6 11 - - - - - - - 13.0 1023.8 -
19/04:00pm ESE 8 13 - - - - - - - 13.3 1023.8 -
19/03:30pm ESE 6 10 - - - - - - - 13.1 1024.2 -
19/03:00pm SE 6 12 - - - - - - - 13.2 1024.9 -
19/02:30pm SE 9 13 - - - - - - - 13.0 1024.9 -
19/02:00pm SE 8 14 - - - - - - - 13.0 1024.6 -
19/01:30pm ESE 6 11 - - - - - - - 13.1 1024.9 -
19/01:00pm ESE 6 13 - - - - - - - 13.1 1024.8 -
19/12:30pm SE 8 13 - - - - - - - 13.0 1024.8 -
19/12:00pm SE 8 14 - - - - - - - 12.8 1025.1 -
19/11:30am ESE 8 15 - - - - - - - 13.0 1024.7 -
19/11:00am SE 9 17 - - - - - - - 13.0 1024.6 -
19/10:30am SE 10 18 - - - - - - - 12.9 1024.3 -
19/10:00am SE 11 19 - - - - - - - 13.0 1024.1 -
19/09:30am SE 10 17 - - - - - - - 12.6 1023.7 -
19/09:00am SE 7 15 - - - - - - - 12.8 1023.5 -
19/08:30am ESE 8 17 - - - - - - - 12.6 1023.5 -
19/08:00am SE 8 13 - - - - - - - 12.7 1023.2 -
19/07:30am SSE 8 13 - - - - - - - 12.5 1023.1 -
19/07:00am SW 3 5 - - - - - - - 11.0 1022.7 -
19/06:30am SSE 7 11 - - - - - - - 11.7 1022.3 -
19/06:00am SSE 7 12 - - - - - - - 11.7 1021.8 -
19/05:30am SSE 7 11 - - - - - - - 11.9 1021.4 -
19/05:00am SSE 10 14 - - - - - - - 12.0 1021.0 -
19/04:30am SSE 9 14 - - - - - - - 12.0 1020.6 -
19/04:00am SSW 6 7 - - - - - - - 11.4 1020.7 -
19/03:30am S 7 11 - - - - - - - 12.0 1020.4 -
19/03:00am SSE 9 12 - - - - - - - 12.1 1020.3 -
19/02:30am S 7 10 - - - - - - - 12.0 1020.4 -
19/02:00am S 6 9 - - - - - - - 12.1 1020.5 -
19/01:30am SSW 7 10 - - - - - - - 11.7 1020.6 -
19/01:00am SSW 6 7 - - - - - - - 11.9 1020.5 -
19/12:30am SSW 4 5 - - - - - - - 11.8 1020.4 -
19/12:00am SSW 7 10 - - - - - - - 12.0 1020.2 -
 
Date/Time
EDT
Wind Sea
Height
m
Swell Vis
km
Cloud Weather Temp
°C
Press
MSL
hPa
Rain since
9am
mm
Dir  Spd
kts
Gust
kts
Height
m
Period
s
Dir
18/11:30pm SSW 5 7 - - - - - - - 11.5 1020.2 -
18/11:00pm SW 5 7 - - - - - - - 11.7 1020.1 -
18/10:30pm SSW 5 7 - - - - - - - 12.0 1019.9 -
18/10:00pm SW 5 8 - - - - - - - 11.9 1019.7 -
18/09:30pm SW 5 7 - - - - - - - 12.1 1019.2 -
18/09:00pm SW 7 9 - - - - - - - 12.1 1018.7 -

Other formats

Comma delimited format used in spreadsheet applications
http://www.bom.gov.au/fwo/IDV60701/IDV60701.95826.axf

JavaScript Object Notation format (JSON) in row-major order
http://www.bom.gov.au/fwo/IDV60701/IDV60701.95826.json

Data quality

Most of these data are generated automatically and are frequently updated. Quality checks on data are not normally performed. It is possible for incorrect values to appear. Refer to information at About Latest Weather Observations and please check the disclaimer before using these data.